Time;durP1;ratioP1;P1;durP2;ratioP2;P2;SDS_P1;SDS_P2;PMS_P1;PMS_P2;Temp;Humidity;BMP_temperature;BMP_pressure;BME280_temperature;BME280_humidity;BME280_pressure;Samples;Min_cycle;Max_cycle;Signal;HPM_P1;HPM_P2
2024/01/21 00:01:19;;;;;;;;;;;19.30;49.80;;;;;;5035338;28;19978;-67
2024/01/21 00:03:44;;;;;;;;;;;19.30;49.70;;;;;;5034541;28;19928;-67
2024/01/21 00:06:10;;;;;;;;;;;19.30;49.70;;;;;;5035977;28;19929;-67
2024/01/21 00:08:35;;;;;;;;;;;19.30;49.60;;;;;;5054024;28;19979;-67
2024/01/21 00:11:01;;;;;;;;;;;19.30;49.70;;;;;;5031631;28;19933;-67
2024/01/21 00:13:26;;;;;;;;;;;19.30;49.60;;;;;;5040308;28;19925;-67
2024/01/21 00:15:52;;;;;;;;;;;19.30;49.60;;;;;;5021539;28;19932;-67
2024/01/21 00:18:17;;;;;;;;;;;19.30;49.60;;;;;;5016003;28;20329;-67
2024/01/21 00:20:43;;;;;;;;;;;19.20;49.50;;;;;;5034312;28;19925;-67
2024/01/21 00:23:08;;;;;;;;;;;19.20;49.50;;;;;;5053629;28;19924;-67
2024/01/21 00:25:34;;;;;;;;;;;19.20;49.50;;;;;;5052629;28;19924;-67
2024/01/21 00:27:59;;;;;;;;;;;19.20;49.50;;;;;;5053764;28;20296;-68
2024/01/21 00:30:25;;;;;;;;;;;19.20;49.50;;;;;;5026809;28;19926;-67
2024/01/21 00:32:50;;;;;;;;;;;19.20;49.40;;;;;;5023227;28;20067;-67
2024/01/21 00:35:16;;;;;;;;;;;19.20;49.30;;;;;;5015901;28;20024;-67
2024/01/21 00:37:41;;;;;;;;;;;19.20;50.10;;;;;;5045265;28;20337;-67
2024/01/21 00:40:08;;;;;;;;;;;19.10;49.30;;;;;;5052951;28;19932;-67
2024/01/21 00:42:34;;;;;;;;;;;19.10;49.30;;;;;;5035629;28;19950;-67
2024/01/21 00:45:00;;;;;;;;;;;19.10;49.20;;;;;;5033714;28;19977;-68
2024/01/21 00:47:25;;;;;;;;;;;19.10;49.30;;;;;;5035154;28;19931;-67
2024/01/21 00:49:51;;;;;;;;;;;19.10;49.30;;;;;;5053457;28;20309;-67
2024/01/21 00:52:16;;;;;;;;;;;19.10;49.20;;;;;;5052796;28;20361;-67
2024/01/21 00:54:42;;;;;;;;;;;19.10;49.20;;;;;;5035879;28;19928;-67
2024/01/21 00:57:07;;;;;;;;;;;19.10;49.20;;;;;;5052512;28;19925;-66
2024/01/21 00:59:33;;;;;;;;;;;19.10;49.20;;;;;;5034610;28;20349;-67
2024/01/21 01:01:58;;;;;;;;;;;19.10;49.20;;;;;;5035067;28;20292;-67
2024/01/21 01:04:23;;;;;;;;;;;19.00;49.10;;;;;;5053346;28;19935;-67
2024/01/21 01:06:49;;;;;;;;;;;19.10;49.10;;;;;;5052760;28;20286;-67
2024/01/21 01:09:15;;;;;;;;;;;19.00;49.00;;;;;;5035227;28;19967;-67
2024/01/21 01:11:40;;;;;;;;;;;19.00;49.00;;;;;;5033702;28;20434;-67
2024/01/21 01:14:06;;;;;;;;;;;19.00;49.00;;;;;;5051942;28;19925;-67
2024/01/21 01:16:36;;;;;;;;;;;19.00;49.00;;;;;;5035062;28;19936;-67
2024/01/21 01:19:01;;;;;;;;;;;19.10;49.00;;;;;;5052839;28;19936;-67
2024/01/21 01:21:27;;;;;;;;;;;19.00;48.90;;;;;;5052364;28;19924;-67
2024/01/21 01:23:52;;;;;;;;;;;19.00;49.00;;;;;;5034338;28;19925;-67
2024/01/21 01:26:17;;;;;;;;;;;19.00;48.80;;;;;;5052738;28;19924;-67
2024/01/21 01:28:43;;;;;;;;;;;19.00;48.90;;;;;;5034314;28;20395;-67
2024/01/21 01:31:08;;;;;;;;;;;19.00;48.90;;;;;;5052726;28;19925;-67
2024/01/21 01:33:34;;;;;;;;;;;19.00;48.80;;;;;;5052727;28;20281;-67
2024/01/21 01:35:59;;;;;;;;;;;19.00;48.80;;;;;;5033123;28;19925;-67
2024/01/21 01:38:25;;;;;;;;;;;18.90;48.70;;;;;;5033980;28;19924;-67
2024/01/21 01:40:51;;;;;;;;;;;19.00;48.80;;;;;;5013058;28;19961;-67
2024/01/21 01:43:16;;;;;;;;;;;18.90;48.70;;;;;;5013275;28;19969;-67
2024/01/21 01:45:42;;;;;;;;;;;18.90;48.70;;;;;;5012713;28;19926;-67
2024/01/21 01:48:07;;;;;;;;;;;18.90;48.80;;;;;;4996234;28;20008;-67
2024/01/21 01:50:33;;;;;;;;;;;18.90;48.70;;;;;;4979379;28;19926;-67
2024/01/21 01:52:59;;;;;;;;;;;18.90;48.70;;;;;;4991412;28;19932;-67
2024/01/21 01:55:25;;;;;;;;;;;18.90;48.70;;;;;;5013937;28;19932;-67
2024/01/21 01:57:51;;;;;;;;;;;18.90;49.30;;;;;;5032896;28;19924;-66
2024/01/21 02:00:17;;;;;;;;;;;18.90;48.60;;;;;;5051975;28;19979;-67
2024/01/21 02:02:42;;;;;;;;;;;18.90;48.60;;;;;;5017121;28;19920;-67
2024/01/21 02:05:08;;;;;;;;;;;18.90;48.60;;;;;;5051917;28;19933;-67
2024/01/21 02:07:33;;;;;;;;;;;18.90;48.60;;;;;;5034855;28;19924;-67
2024/01/21 02:09:59;;;;;;;;;;;18.90;48.60;;;;;;5051411;28;19925;-67
2024/01/21 02:12:25;;;;;;;;;;;18.90;48.60;;;;;;5036210;28;20288;-67
2024/01/21 02:14:50;;;;;;;;;;;18.80;48.40;;;;;;5044352;28;19920;-67
2024/01/21 02:17:16;;;;;;;;;;;18.80;48.40;;;;;;5017140;28;19925;-67
2024/01/21 02:19:41;;;;;;;;;;;18.80;48.40;;;;;;5037146;28;19929;-67
2024/01/21 02:22:07;;;;;;;;;;;18.80;48.30;;;;;;5055468;28;20369;-67
2024/01/21 02:24:33;;;;;;;;;;;18.80;48.40;;;;;;5039696;28;19932;-67
2024/01/21 02:26:59;;;;;;;;;;;18.80;48.40;;;;;;5018150;28;19932;-67
2024/01/21 02:29:24;;;;;;;;;;;18.80;48.30;;;;;;5044766;28;19926;-67
2024/01/21 02:31:51;;;;;;;;;;;18.80;48.30;;;;;;5038486;28;19931;-67
2024/01/21 02:34:16;;;;;;;;;;;18.80;48.30;;;;;;5055521;28;20070;-67
2024/01/21 02:36:43;;;;;;;;;;;18.80;48.30;;;;;;5038146;28;20011;-67
2024/01/21 02:39:08;;;;;;;;;;;18.80;48.20;;;;;;5055016;28;19924;-67
2024/01/21 02:41:34;;;;;;;;;;;18.80;48.20;;;;;;5042930;28;19928;-67
2024/01/21 02:44:00;;;;;;;;;;;18.80;48.20;;;;;;5048997;28;20494;-67
2024/01/21 02:46:26;;;;;;;;;;;18.80;48.20;;;;;;5042059;28;19921;-67
2024/01/21 02:48:51;;;;;;;;;;;18.80;48.20;;;;;;5014969;28;19929;-67
2024/01/21 02:51:17;;;;;;;;;;;18.80;48.10;;;;;;5024642;28;20008;-66
2024/01/21 02:53:42;;;;;;;;;;;18.80;48.20;;;;;;5018208;28;19925;-66
2024/01/21 02:56:08;;;;;;;;;;;18.80;48.00;;;;;;5017208;28;19973;-67
2024/01/21 02:58:33;;;;;;;;;;;18.80;48.10;;;;;;5017336;28;19925;-66
2024/01/21 03:00:58;;;;;;;;;;;18.80;48.00;;;;;;5009534;28;19925;-66
2024/01/21 03:03:24;;;;;;;;;;;18.80;48.00;;;;;;5032101;28;19947;-66
2024/01/21 03:05:49;;;;;;;;;;;18.80;47.90;;;;;;5033550;28;19925;-67
2024/01/21 03:08:15;;;;;;;;;;;18.80;47.90;;;;;;5023740;28;20135;-66
2024/01/21 03:10:40;;;;;;;;;;;18.80;47.90;;;;;;5017770;28;19975;-67
2024/01/21 03:13:07;;;;;;;;;;;18.80;48.00;;;;;;5031364;28;19968;-66
2024/01/21 03:15:33;;;;;;;;;;;18.80;47.90;;;;;;5041764;28;19928;-66
2024/01/21 03:17:58;;;;;;;;;;;18.90;47.90;;;;;;5017246;28;19925;-66
2024/01/21 03:20:24;;;;;;;;;;;18.90;48.00;;;;;;5016993;28;19929;-67
2024/01/21 03:22:50;;;;;;;;;;;18.90;48.00;;;;;;5050547;28;20014;-67
2024/01/21 03:25:15;;;;;;;;;;;18.90;47.90;;;;;;5054653;28;20381;-67
2024/01/21 03:27:40;;;;;;;;;;;18.90;47.80;;;;;;5022079;28;19925;-67
2024/01/21 03:30:06;;;;;;;;;;;18.90;47.80;;;;;;5006812;28;20021;-67
2024/01/21 03:32:32;;;;;;;;;;;18.90;47.80;;;;;;4997841;28;19925;-67
2024/01/21 03:34:57;;;;;;;;;;;18.90;47.80;;;;;;5000267;28;19933;-67
2024/01/21 03:37:23;;;;;;;;;;;18.90;47.80;;;;;;5036409;28;19924;-67
2024/01/21 03:39:48;;;;;;;;;;;18.90;47.80;;;;;;5025106;28;19933;-67
2024/01/21 03:42:14;;;;;;;;;;;18.90;47.80;;;;;;5013857;28;20023;-67
2024/01/21 03:44:40;;;;;;;;;;;18.90;47.70;;;;;;5039641;28;19933;-67
2024/01/21 03:47:05;;;;;;;;;;;18.90;47.70;;;;;;5013223;28;20301;-67
2024/01/21 03:49:31;;;;;;;;;;;18.90;47.70;;;;;;4996585;28;19925;-67
2024/01/21 03:51:56;;;;;;;;;;;19.00;47.70;;;;;;5013542;28;19925;-67
2024/01/21 03:54:22;;;;;;;;;;;19.00;47.70;;;;;;5020707;28;19976;-67
2024/01/21 03:56:47;;;;;;;;;;;19.00;47.70;;;;;;5022120;28;19932;-67
2024/01/21 03:59:13;;;;;;;;;;;19.00;47.60;;;;;;5018195;28;20339;-67
2024/01/21 04:01:44;;;;;;;;;;;19.00;47.60;;;;;;5045937;28;19925;-67
2024/01/21 04:04:11;;;;;;;;;;;19.00;48.20;;;;;;5035626;28;20055;-67
2024/01/21 04:06:40;;;;;;;;;;;19.00;47.60;;;;;;5053475;28;19970;-67
2024/01/21 04:09:05;;;;;;;;;;;19.00;47.50;;;;;;5053128;28;20395;-67
2024/01/21 04:11:31;;;;;;;;;;;19.00;47.60;;;;;;5054382;28;19925;-67
2024/01/21 04:13:56;;;;;;;;;;;19.00;47.50;;;;;;5052984;28;20050;-67
2024/01/21 04:16:22;;;;;;;;;;;19.00;47.40;;;;;;5015696;28;19930;-67
2024/01/21 04:18:47;;;;;;;;;;;19.00;47.40;;;;;;4997006;28;19983;-67
2024/01/21 04:21:13;;;;;;;;;;;19.00;47.40;;;;;;4996314;28;19925;-67
2024/01/21 04:23:39;;;;;;;;;;;19.00;47.40;;;;;;5022197;28;19979;-67
2024/01/21 04:26:04;;;;;;;;;;;19.10;47.40;;;;;;5032490;28;19925;-67
2024/01/21 04:28:30;;;;;;;;;;;19.10;47.30;;;;;;5032660;28;19983;-67
2024/01/21 04:30:56;;;;;;;;;;;19.10;47.20;;;;;;5030628;28;19975;-67
2024/01/21 04:33:22;;;;;;;;;;;19.10;47.30;;;;;;5033899;28;20028;-67
2024/01/21 04:35:47;;;;;;;;;;;19.10;47.30;;;;;;5032491;28;20064;-67
2024/01/21 04:38:13;;;;;;;;;;;19.10;47.20;;;;;;5030175;28;20384;-67
2024/01/21 04:40:38;;;;;;;;;;;19.10;47.30;;;;;;5033179;28;20119;-67
2024/01/21 04:43:04;;;;;;;;;;;19.10;47.20;;;;;;5032363;28;19925;-67
2024/01/21 04:45:29;;;;;;;;;;;19.10;47.90;;;;;;5018773;28;19925;-67
2024/01/21 04:47:55;;;;;;;;;;;19.20;47.20;;;;;;5032191;28;19925;-67
2024/01/21 04:50:20;;;;;;;;;;;19.20;47.20;;;;;;5032039;28;19933;-67
2024/01/21 04:52:45;;;;;;;;;;;19.20;47.20;;;;;;5014778;28;20033;-67
2024/01/21 04:55:11;;;;;;;;;;;19.20;47.20;;;;;;5030432;28;19983;-67
2024/01/21 04:57:36;;;;;;;;;;;19.20;47.10;;;;;;5014175;28;19979;-67
2024/01/21 05:00:02;;;;;;;;;;;19.20;47.10;;;;;;5011022;28;20392;-67
2024/01/21 05:02:28;;;;;;;;;;;19.20;47.10;;;;;;5002475;28;19929;-67
2024/01/21 05:04:53;;;;;;;;;;;19.20;47.10;;;;;;5027616;28;19925;-68
2024/01/21 05:07:19;;;;;;;;;;;19.30;47.20;;;;;;5030160;28;19925;-66
2024/01/21 05:09:44;;;;;;;;;;;19.30;47.10;;;;;;5032476;28;19995;-67
2024/01/21 05:12:10;;;;;;;;;;;19.30;47.10;;;;;;5030698;28;19936;-67
2024/01/21 05:14:35;;;;;;;;;;;19.30;47.00;;;;;;5032931;28;19925;-67
2024/01/21 05:17:01;;;;;;;;;;;19.30;47.00;;;;;;5031700;28;19926;-67
2024/01/21 05:19:26;;;;;;;;;;;19.30;47.00;;;;;;5017072;28;19925;-67
2024/01/21 05:21:52;;;;;;;;;;;19.30;47.00;;;;;;5032913;28;19963;-67
2024/01/21 05:24:17;;;;;;;;;;;19.30;46.90;;;;;;5031963;28;19964;-67
2024/01/21 05:26:44;;;;;;;;;;;19.30;46.90;;;;;;5042805;28;19925;-67
2024/01/21 05:29:09;;;;;;;;;;;19.40;47.00;;;;;;5052221;28;19925;-67
2024/01/21 05:31:35;;;;;;;;;;;19.40;46.90;;;;;;5052810;28;19970;-67
2024/01/21 05:34:00;;;;;;;;;;;19.40;46.90;;;;;;5033512;28;19925;-67
2024/01/21 05:36:26;;;;;;;;;;;19.40;47.20;;;;;;5052096;28;20376;-67
2024/01/21 05:38:51;;;;;;;;;;;19.40;46.90;;;;;;5052468;28;19929;-66
2024/01/21 05:41:17;;;;;;;;;;;19.40;46.90;;;;;;5034306;28;20288;-67
2024/01/21 05:43:42;;;;;;;;;;;19.40;46.90;;;;;;5022217;28;19935;-67
2024/01/21 05:46:08;;;;;;;;;;;19.40;46.90;;;;;;5016904;28;19932;-67
2024/01/21 05:48:33;;;;;;;;;;;19.40;46.80;;;;;;5037462;28;19925;-67
2024/01/21 05:51:00;;;;;;;;;;;19.40;46.80;;;;;;5045914;28;20025;-67
2024/01/21 05:53:25;;;;;;;;;;;19.40;46.80;;;;;;5052789;28;19925;-67
2024/01/21 05:55:51;;;;;;;;;;;19.50;46.80;;;;;;5055851;28;19958;-66
2024/01/21 05:58:16;;;;;;;;;;;19.40;46.80;;;;;;5055735;28;20277;-66
2024/01/21 06:00:42;;;;;;;;;;;19.50;46.80;;;;;;5044248;28;19929;-66
2024/01/21 06:03:07;;;;;;;;;;;19.50;46.80;;;;;;5035675;28;19947;-66
2024/01/21 06:05:33;;;;;;;;;;;19.50;46.80;;;;;;5036222;28;20304;-66
2024/01/21 06:07:58;;;;;;;;;;;19.50;46.80;;;;;;5051401;28;20022;-67
2024/01/21 06:10:24;;;;;;;;;;;19.50;46.80;;;;;;5037757;28;19928;-67
2024/01/21 06:12:49;;;;;;;;;;;19.50;46.70;;;;;;5038827;28;19929;-67
2024/01/21 06:15:15;;;;;;;;;;;19.50;46.60;;;;;;5025831;28;19929;-67
2024/01/21 06:17:40;;;;;;;;;;;19.50;46.60;;;;;;5016441;28;20266;-67
2024/01/21 06:20:07;;;;;;;;;;;19.50;46.60;;;;;;5013916;28;19928;-67
2024/01/21 06:22:32;;;;;;;;;;;19.50;46.60;;;;;;5035748;28;19978;-68
2024/01/21 06:24:58;;;;;;;;;;;19.50;46.50;;;;;;5044808;28;19929;-67
2024/01/21 06:27:23;;;;;;;;;;;19.50;46.40;;;;;;5034342;28;20016;-68
2024/01/21 06:29:49;;;;;;;;;;;19.60;46.50;;;;;;5015448;28;19925;-67
2024/01/21 06:32:14;;;;;;;;;;;19.60;46.50;;;;;;5017188;28;19921;-67
2024/01/21 06:34:40;;;;;;;;;;;19.60;46.50;;;;;;5015958;28;19976;-67
2024/01/21 06:37:05;;;;;;;;;;;19.60;46.50;;;;;;5033777;28;20024;-67
2024/01/21 06:39:31;;;;;;;;;;;19.60;46.50;;;;;;5017500;28;19971;-67
2024/01/21 06:41:56;;;;;;;;;;;19.60;46.40;;;;;;5014059;28;19979;-67
2024/01/21 06:44:22;;;;;;;;;;;19.70;46.40;;;;;;4999551;28;19973;-68
2024/01/21 06:46:47;;;;;;;;;;;19.70;46.40;;;;;;5055040;28;19924;-68
2024/01/21 06:49:13;;;;;;;;;;;19.70;46.40;;;;;;5037550;28;19925;-68
2024/01/21 06:51:53;;;;;;;;;;;19.70;46.30;;;;;;5035818;28;20410;-73
2024/01/21 06:54:19;;;;;;;;;;;19.70;46.30;;;;;;5036615;28;19925;-67
2024/01/21 06:56:45;;;;;;;;;;;19.70;46.30;;;;;;5037394;28;19992;-67
2024/01/21 06:59:10;;;;;;;;;;;19.70;46.40;;;;;;5053486;28;20315;-68
2024/01/21 07:01:36;;;;;;;;;;;19.80;46.40;;;;;;5018094;28;19960;-67
2024/01/21 07:04:01;;;;;;;;;;;19.80;46.40;;;;;;5017456;28;19925;-69
2024/01/21 07:06:27;;;;;;;;;;;19.80;46.60;;;;;;5015671;28;19932;-72
2024/01/21 07:08:52;;;;;;;;;;;19.80;46.80;;;;;;5035053;28;19948;-68
2024/01/21 07:11:18;;;;;;;;;;;19.80;46.90;;;;;;5035550;28;20285;-70
2024/01/21 07:13:43;;;;;;;;;;;19.90;47.00;;;;;;5034704;28;20024;-69
2024/01/21 07:16:09;;;;;;;;;;;19.90;47.50;;;;;;5017534;28;19921;-68
2024/01/21 07:18:35;;;;;;;;;;;20.00;47.40;;;;;;5034557;28;20377;-67
2024/01/21 07:21:00;;;;;;;;;;;20.00;47.40;;;;;;5034256;28;19925;-69
2024/01/21 07:23:26;;;;;;;;;;;20.00;47.50;;;;;;5035312;28;19925;-72
2024/01/21 07:25:51;;;;;;;;;;;20.00;47.70;;;;;;5034479;28;19931;-71
2024/01/21 07:28:17;;;;;;;;;;;20.00;47.80;;;;;;5035232;28;19986;-71
2024/01/21 07:30:43;;;;;;;;;;;20.10;47.80;;;;;;5034922;28;19972;-70
2024/01/21 07:33:10;;;;;;;;;;;20.00;47.70;;;;;;5016112;28;19932;-70
2024/01/21 07:35:36;;;;;;;;;;;20.10;47.70;;;;;;5034974;28;19986;-70
2024/01/21 07:38:01;;;;;;;;;;;20.10;47.60;;;;;;5032424;28;19928;-70
2024/01/21 07:40:27;;;;;;;;;;;20.10;47.60;;;;;;5033424;28;19948;-69
2024/01/21 07:42:52;;;;;;;;;;;20.10;47.70;;;;;;5034282;28;19929;-69
2024/01/21 07:45:18;;;;;;;;;;;20.10;47.80;;;;;;5016879;28;19926;-64
2024/01/21 07:47:43;;;;;;;;;;;20.10;47.70;;;;;;5016197;28;19925;-71
2024/01/21 07:50:09;;;;;;;;;;;20.10;47.70;;;;;;5016592;28;19932;-69
2024/01/21 07:52:35;;;;;;;;;;;20.10;47.80;;;;;;5034747;28;19979;-66
2024/01/21 07:55:00;;;;;;;;;;;20.20;47.70;;;;;;5033790;28;19971;-65
2024/01/21 07:57:26;;;;;;;;;;;20.20;47.60;;;;;;5009430;28;19936;-65
2024/01/21 07:59:51;;;;;;;;;;;20.20;47.70;;;;;;5018454;28;19932;-63
2024/01/21 08:02:17;;;;;;;;;;;20.20;47.90;;;;;;5011365;28;19925;-62
2024/01/21 08:04:42;;;;;;;;;;;20.20;47.90;;;;;;5033906;28;20032;-65
2024/01/21 08:07:08;;;;;;;;;;;20.20;47.70;;;;;;5013375;28;20016;-65
2024/01/21 08:09:36;;;;;;;;;;;20.20;47.70;;;;;;5012514;28;20012;-66
2024/01/21 08:12:02;;;;;;;;;;;20.20;47.70;;;;;;5029460;28;19933;-73
2024/01/21 08:14:27;;;;;;;;;;;20.20;47.80;;;;;;5016407;28;19925;-65
2024/01/21 08:16:53;;;;;;;;;;;20.20;47.90;;;;;;5043803;28;19925;-70
2024/01/21 08:19:20;;;;;;;;;;;20.20;47.90;;;;;;5016270;28;19925;-65
2024/01/21 08:21:48;;;;;;;;;;;20.20;48.20;;;;;;5033016;28;19933;-65
2024/01/21 08:24:14;;;;;;;;;;;20.20;47.90;;;;;;5033375;28;19931;-63
2024/01/21 08:26:39;;;;;;;;;;;20.20;47.90;;;;;;5033280;28;19925;-66
2024/01/21 08:29:05;;;;;;;;;;;20.20;47.90;;;;;;5032798;28;19955;-66
2024/01/21 08:31:30;;;;;;;;;;;20.20;47.80;;;;;;5015997;28;19928;-66
2024/01/21 08:33:56;;;;;;;;;;;20.20;47.80;;;;;;5033415;28;20333;-66
2024/01/21 08:36:21;;;;;;;;;;;20.20;47.80;;;;;;5014979;28;19932;-68
2024/01/21 08:38:47;;;;;;;;;;;20.20;47.70;;;;;;5014008;28;19925;-67
2024/01/21 08:41:12;;;;;;;;;;;20.20;47.70;;;;;;5032937;28;19936;-67
2024/01/21 08:43:38;;;;;;;;;;;20.20;47.50;;;;;;5032538;28;20389;-68
2024/01/21 08:46:03;;;;;;;;;;;20.20;47.50;;;;;;5013172;28;20289;-67
2024/01/21 08:48:29;;;;;;;;;;;20.20;47.50;;;;;;5027387;28;20020;-68
2024/01/21 08:50:55;;;;;;;;;;;20.20;47.50;;;;;;5031107;28;19925;-68
2024/01/21 08:53:20;;;;;;;;;;;20.20;47.60;;;;;;5010145;28;19964;-70
2024/01/21 08:55:46;;;;;;;;;;;20.10;47.70;;;;;;5010538;28;20015;-65
2024/01/21 08:58:12;;;;;;;;;;;20.10;48.00;;;;;;5008585;28;19929;-70
2024/01/21 09:00:37;;;;;;;;;;;20.10;47.90;;;;;;5014025;28;19925;-67
2024/01/21 09:03:04;;;;;;;;;;;20.10;47.90;;;;;;5031346;28;19929;-67
2024/01/21 09:05:29;;;;;;;;;;;20.10;48.00;;;;;;5031611;28;19925;-67
2024/01/21 09:07:55;;;;;;;;;;;20.10;48.00;;;;;;5014785;28;19925;-70
2024/01/21 09:10:21;;;;;;;;;;;20.10;48.00;;;;;;5029647;28;19936;-65
2024/01/21 09:12:46;;;;;;;;;;;20.10;48.00;;;;;;5014154;28;19924;-66
2024/01/21 09:15:12;;;;;;;;;;;20.10;48.30;;;;;;5032216;28;19972;-68
2024/01/21 09:17:37;;;;;;;;;;;20.10;48.30;;;;;;5032226;28;19925;-67
2024/01/21 09:20:03;;;;;;;;;;;20.10;48.20;;;;;;5031360;28;19929;-68
2024/01/21 09:22:28;;;;;;;;;;;20.10;48.20;;;;;;5014185;28;19971;-65
2024/01/21 09:24:54;;;;;;;;;;;20.10;48.20;;;;;;5012020;28;20373;-70
2024/01/21 09:27:20;;;;;;;;;;;20.10;48.50;;;;;;5013766;28;19925;-68
2024/01/21 09:29:45;;;;;;;;;;;20.10;48.50;;;;;;5032707;28;19933;-68
2024/01/21 09:32:11;;;;;;;;;;;20.10;48.60;;;;;;5014082;28;20341;-68
2024/01/21 09:34:39;;;;;;;;;;;20.10;49.40;;;;;;5032337;28;19960;-68
2024/01/21 09:37:05;;;;;;;;;;;20.10;48.60;;;;;;5014105;28;19929;-68
2024/01/21 09:39:30;;;;;;;;;;;20.10;48.80;;;;;;5033401;28;19925;-66
2024/01/21 09:41:56;;;;;;;;;;;20.00;48.80;;;;;;5012145;28;19921;-66
2024/01/21 09:44:25;;;;;;;;;;;20.00;48.70;;;;;;4998667;28;19925;-66
2024/01/21 09:46:57;;;;;;;;;;;20.00;48.70;;;;;;5031627;28;19929;-72
2024/01/21 09:49:23;;;;;;;;;;;20.00;48.70;;;;;;5032503;28;20415;-66
2024/01/21 09:51:49;;;;;;;;;;;20.00;48.60;;;;;;5032042;28;19925;-67
2024/01/21 09:54:15;;;;;;;;;;;20.00;48.60;;;;;;5011146;28;19944;-66
2024/01/21 09:56:41;;;;;;;;;;;20.00;48.30;;;;;;5032638;28;19995;-66
2024/01/21 09:59:07;;;;;;;;;;;20.00;48.20;;;;;;5014401;28;19932;-66
2024/01/21 10:01:33;;;;;;;;;;;19.90;48.00;;;;;;5014075;28;19925;-66
2024/01/21 10:03:58;;;;;;;;;;;19.90;47.80;;;;;;4992456;28;19933;-65
2024/01/21 10:06:24;;;;;;;;;;;19.90;47.80;;;;;;5032411;28;19948;-66
2024/01/21 10:08:49;;;;;;;;;;;19.90;47.40;;;;;;5014291;28;19933;-65
2024/01/21 10:11:15;;;;;;;;;;;19.80;47.20;;;;;;5029365;28;20288;-67
2024/01/21 10:13:42;;;;;;;;;;;19.80;47.00;;;;;;5032229;28;19927;-66
2024/01/21 10:16:08;;;;;;;;;;;19.80;46.90;;;;;;5031345;28;19961;-68
2024/01/21 10:18:34;;;;;;;;;;;19.80;47.00;;;;;;5032201;28;19960;-65
2024/01/21 10:21:02;;;;;;;;;;;19.80;47.10;;;;;;5014569;28;20454;-67
2024/01/21 10:23:27;;;;;;;;;;;19.70;47.00;;;;;;5030493;28;19925;-65
2024/01/21 10:25:53;;;;;;;;;;;19.70;47.00;;;;;;5028855;28;20439;-64
2024/01/21 10:28:18;;;;;;;;;;;19.70;47.00;;;;;;5014255;28;19929;-65
2024/01/21 10:30:44;;;;;;;;;;;19.70;47.00;;;;;;5031728;28;20324;-65
2024/01/21 10:33:10;;;;;;;;;;;19.70;47.20;;;;;;5016107;28;20312;-65
2024/01/21 10:35:35;;;;;;;;;;;19.70;47.00;;;;;;5035364;28;19932;-65
2024/01/21 10:38:05;;;;;;;;;;;19.60;47.00;;;;;;4997482;28;19929;-67
2024/01/21 10:40:31;;;;;;;;;;;19.70;47.10;;;;;;5023666;28;19932;-66
2024/01/21 10:42:59;;;;;;;;;;;19.70;47.10;;;;;;5035067;28;19929;-65
2024/01/21 10:45:24;;;;;;;;;;;19.60;47.10;;;;;;5017742;28;19925;-66
2024/01/21 10:47:50;;;;;;;;;;;19.60;47.20;;;;;;5036198;28;20002;-65
2024/01/21 10:50:16;;;;;;;;;;;19.70;47.20;;;;;;5000530;28;19968;-65
2024/01/21 10:52:43;;;;;;;;;;;19.70;47.10;;;;;;5035526;28;20015;-65
2024/01/21 10:55:08;;;;;;;;;;;19.70;47.10;;;;;;5034670;28;19971;-66
2024/01/21 10:57:34;;;;;;;;;;;19.70;47.00;;;;;;5035018;28;19937;-66
2024/01/21 10:59:59;;;;;;;;;;;19.70;47.10;;;;;;5034003;28;19973;-65
2024/01/21 11:02:25;;;;;;;;;;;19.70;47.20;;;;;;5034740;28;19929;-65
2024/01/21 11:04:50;;;;;;;;;;;19.70;47.10;;;;;;5034456;28;19971;-66
2024/01/21 11:07:17;;;;;;;;;;;19.70;47.10;;;;;;5031014;28;19925;-64
2024/01/21 11:09:42;;;;;;;;;;;19.70;47.10;;;;;;5013863;28;19925;-64
2024/01/21 11:12:08;;;;;;;;;;;19.70;47.00;;;;;;5012183;28;19933;-65
2024/01/21 11:14:33;;;;;;;;;;;19.70;47.10;;;;;;5023275;28;19933;-65
2024/01/21 11:17:02;;;;;;;;;;;19.80;47.10;;;;;;5009429;28;19926;-66
2024/01/21 11:19:54;;;;;;;;;;;19.80;47.10;;;;;;5017491;28;19933;-69
2024/01/21 11:22:22;;;;;;;;;;;19.80;47.20;;;;;;5023375;28;19925;-68
2024/01/21 11:24:47;;;;;;;;;;;19.80;47.30;;;;;;5011248;28;20020;-66
2024/01/21 11:27:18;;;;;;;;;;;19.80;47.30;;;;;;5033649;28;20067;-66
2024/01/21 11:29:44;;;;;;;;;;;19.80;47.40;;;;;;5017143;28;20493;-65
2024/01/21 11:32:09;;;;;;;;;;;19.80;47.30;;;;;;5015878;28;19921;-66
2024/01/21 11:34:38;;;;;;;;;;;19.80;47.30;;;;;;5034627;28;20412;-66
2024/01/21 11:37:04;;;;;;;;;;;19.90;47.30;;;;;;5033860;28;19998;-66
2024/01/21 11:39:30;;;;;;;;;;;19.90;47.40;;;;;;5029901;28;20381;-66
2024/01/21 11:41:55;;;;;;;;;;;19.90;47.20;;;;;;5033995;28;20408;-66
2024/01/21 11:44:22;;;;;;;;;;;19.90;47.00;;;;;;5032837;28;19968;-66
2024/01/21 11:46:47;;;;;;;;;;;19.90;47.10;;;;;;5032716;28;19979;-67
2024/01/21 11:49:13;;;;;;;;;;;19.90;47.00;;;;;;5033166;28;19930;-67
2024/01/21 11:51:39;;;;;;;;;;;19.90;47.00;;;;;;5034030;28;19925;-66
2024/01/21 11:54:04;;;;;;;;;;;19.90;47.10;;;;;;5042993;28;20023;-64
2024/01/21 11:56:30;;;;;;;;;;;19.90;47.20;;;;;;5036549;28;20287;-66
2024/01/21 11:58:56;;;;;;;;;;;19.90;47.10;;;;;;5035197;28;20015;-66
2024/01/21 12:01:21;;;;;;;;;;;19.90;47.10;;;;;;5053306;28;20012;-66
2024/01/21 12:03:47;;;;;;;;;;;19.90;47.20;;;;;;5035020;28;19925;-66
2024/01/21 12:06:13;;;;;;;;;;;19.90;47.20;;;;;;5054111;28;19929;-66
2024/01/21 12:08:41;;;;;;;;;;;19.90;47.20;;;;;;5034862;28;19978;-66
2024/01/21 12:11:06;;;;;;;;;;;19.90;47.20;;;;;;5036644;28;20012;-66
2024/01/21 12:13:32;;;;;;;;;;;19.90;47.20;;;;;;5054320;28;19971;-66
2024/01/21 12:15:58;;;;;;;;;;;19.90;47.30;;;;;;5052118;28;19925;-66
2024/01/21 12:18:24;;;;;;;;;;;20.00;47.40;;;;;;5018152;28;19929;-65
2024/01/21 12:20:50;;;;;;;;;;;19.90;47.30;;;;;;5014603;28;20587;-63
2024/01/21 12:23:22;;;;;;;;;;;19.90;47.60;;;;;;5015376;28;21383;-63
2024/01/21 12:25:47;;;;;;;;;;;19.90;47.70;;;;;;5013837;28;19933;-64
2024/01/21 12:28:13;;;;;;;;;;;19.90;47.70;;;;;;5032204;28;19936;-64
2024/01/21 12:30:38;;;;;;;;;;;19.90;47.70;;;;;;5035426;28;19925;-64
2024/01/21 12:33:04;;;;;;;;;;;19.90;47.80;;;;;;5032843;28;19925;-64
2024/01/21 12:35:30;;;;;;;;;;;20.00;47.90;;;;;;5032961;28;19982;-64
2024/01/21 12:37:56;;;;;;;;;;;20.00;47.90;;;;;;5033608;28;19975;-65
2024/01/21 12:40:22;;;;;;;;;;;20.00;48.00;;;;;;5015897;28;19972;-65
2024/01/21 12:42:48;;;;;;;;;;;20.00;48.00;;;;;;5029757;28;20448;-63
2024/01/21 12:45:13;;;;;;;;;;;20.00;48.10;;;;;;5033186;28;20047;-63
2024/01/21 12:47:39;;;;;;;;;;;20.00;48.10;;;;;;5033019;28;19921;-63
2024/01/21 12:50:08;;;;;;;;;;;20.00;48.20;;;;;;5014241;28;19995;-64
2024/01/21 12:52:34;;;;;;;;;;;20.00;48.20;;;;;;5033069;28;19936;-64
2024/01/21 12:54:59;;;;;;;;;;;20.00;48.30;;;;;;5032916;28;19921;-63
2024/01/21 12:57:25;;;;;;;;;;;20.00;48.30;;;;;;5033375;28;19972;-64
2024/01/21 12:59:50;;;;;;;;;;;20.00;48.30;;;;;;5033250;28;19947;-64
2024/01/21 13:02:16;;;;;;;;;;;20.00;48.30;;;;;;5033058;28;19932;-65
2024/01/21 13:04:41;;;;;;;;;;;20.00;48.30;;;;;;5032548;28;20349;-66
2024/01/21 13:07:07;;;;;;;;;;;20.00;48.50;;;;;;5033169;28;20361;-65
2024/01/21 13:09:32;;;;;;;;;;;20.10;48.40;;;;;;5019088;28;19929;-65
2024/01/21 13:11:58;;;;;;;;;;;20.00;48.40;;;;;;5023683;28;19925;-65
2024/01/21 13:14:23;;;;;;;;;;;20.10;48.40;;;;;;5032197;28;19929;-65
2024/01/21 13:16:49;;;;;;;;;;;20.00;47.70;;;;;;5032864;28;20027;-65
2024/01/21 13:19:14;;;;;;;;;;;20.00;47.70;;;;;;5032371;28;20008;-64
2024/01/21 13:21:40;;;;;;;;;;;20.00;47.80;;;;;;5033371;28;19932;-65
2024/01/21 13:24:05;;;;;;;;;;;20.00;48.00;;;;;;5011706;28;19975;-64
2024/01/21 13:26:31;;;;;;;;;;;20.00;48.00;;;;;;5047923;28;20011;-64
2024/01/21 13:31:34;;;;;;;;;;;20.10;48.20;;;;;;5039815;28;20629;-63
2024/01/21 13:34:04;;;;;;;;;;;20.10;48.20;;;;;;5012560;28;19980;-63
2024/01/21 13:36:32;;;;;;;;;;;20.00;48.10;;;;;;5012255;28;19948;-64
2024/01/21 13:38:58;;;;;;;;;;;20.10;48.10;;;;;;5014355;28;19925;-65
2024/01/21 13:41:23;;;;;;;;;;;20.10;48.10;;;;;;5014530;28;19933;-65
2024/01/21 13:43:48;;;;;;;;;;;20.00;48.10;;;;;;5032178;28;20283;-64
2024/01/21 13:46:15;;;;;;;;;;;20.10;48.20;;;;;;5031081;28;19940;-64
2024/01/21 13:48:41;;;;;;;;;;;20.10;48.10;;;;;;5031125;28;19932;-64
2024/01/21 13:51:09;;;;;;;;;;;20.10;48.90;;;;;;5032005;28;19925;-64
2024/01/21 13:53:38;;;;;;;;;;;20.10;48.20;;;;;;5032077;28;19925;-63
2024/01/21 13:56:03;;;;;;;;;;;20.10;48.10;;;;;;5032214;28;19925;-64
2024/01/21 13:58:29;;;;;;;;;;;20.10;48.20;;;;;;5032537;28;19925;-63
2024/01/21 14:00:54;;;;;;;;;;;20.10;48.10;;;;;;5032011;28;19925;-63
2024/01/21 14:03:20;;;;;;;;;;;20.10;48.00;;;;;;5015239;28;19975;-63
2024/01/21 14:05:45;;;;;;;;;;;20.10;48.10;;;;;;5015010;28;20364;-63
2024/01/21 14:08:11;;;;;;;;;;;20.10;48.10;;;;;;5033533;28;20402;-63
2024/01/21 14:10:37;;;;;;;;;;;20.10;48.10;;;;;;5019103;28;19925;-63